Terminal Aerodrome Forecast
Issued by NWS

Current Version | Previous Version | Text Only | Print | Product List | Glossary Off
Versions: 1 2 3 4 5 6 7 8 9 10 11 12 13 14 15 16 17 18 19 20 21 22 23 24 25 26

689
FTUS41 KILN 262320
TAFLUK
TAF
KLUK 262320Z 2700/2724 20008KT P6SM SCT040 BKN200
     FM270200 18003KT P6SM SCT040 BKN250
     FM270600 00000KT 4SM BR SCT040 BKN250
      TEMPO 2710/2712 2SM BR
     FM271300 19004KT P6SM SCT040 BKN250
     FM271600 19010KT P6SM BKN040=

USA.gov is the U.S. government's official web portal to all federal, state and local government web resources and services.